sensor_id;sensor_type;location;lat;lon;timestamp;P1;durP1;ratioP1;P2;durP2;ratioP2
74541;SDS011;63015;45.378;20.360;2022-11-11T00:00:34;38.47;;;17.40;;
74541;SDS011;63015;45.378;20.360;2022-11-11T00:02:56;35.58;;;16.77;;
74541;SDS011;63015;45.378;20.360;2022-11-11T00:05:16;38.47;;;16.65;;
74541;SDS011;63015;45.378;20.360;2022-11-11T00:07:35;36.17;;;16.70;;
74541;SDS011;63015;45.378;20.360;2022-11-11T00:09:54;35.67;;;15.48;;
74541;SDS011;63015;45.378;20.360;2022-11-11T00:12:13;33.78;;;16.23;;
74541;SDS011;63015;45.378;20.360;2022-11-11T00:14:32;32.60;;;15.48;;
74541;SDS011;63015;45.378;20.360;2022-11-11T00:16:51;34.38;;;15.05;;
74541;SDS011;63015;45.378;20.360;2022-11-11T00:19:48;37.25;;;15.85;;
74541;SDS011;63015;45.378;20.360;2022-11-11T00:22:26;33.63;;;15.07;;
74541;SDS011;63015;45.378;20.360;2022-11-11T00:24:45;33.67;;;14.95;;
74541;SDS011;63015;45.378;20.360;2022-11-11T00:27:23;31.38;;;14.43;;
74541;SDS011;63015;45.378;20.360;2022-11-11T00:29:46;38.70;;;15.20;;
74541;SDS011;63015;45.378;20.360;2022-11-11T00:32:06;36.28;;;15.93;;
74541;SDS011;63015;45.378;20.360;2022-11-11T00:34:41;34.20;;;14.70;;
74541;SDS011;63015;45.378;20.360;2022-11-11T00:37:20;33.45;;;14.68;;
74541;SDS011;63015;45.378;20.360;2022-11-11T00:39:39;33.97;;;14.43;;
74541;SDS011;63015;45.378;20.360;2022-11-11T00:41:58;33.22;;;14.80;;
74541;SDS011;63015;45.378;20.360;2022-11-11T00:44:17;36.00;;;14.75;;
74541;SDS011;63015;45.378;20.360;2022-11-11T00:46:36;33.20;;;15.13;;
74541;SDS011;63015;45.378;20.360;2022-11-11T00:49:14;31.48;;;14.82;;
74541;SDS011;63015;45.378;20.360;2022-11-11T00:51:52;33.92;;;15.23;;
74541;SDS011;63015;45.378;20.360;2022-11-11T00:54:11;33.33;;;15.25;;
74541;SDS011;63015;45.378;20.360;2022-11-11T00:56:31;32.80;;;15.65;;
74541;SDS011;63015;45.378;20.360;2022-11-11T00:58:50;33.50;;;14.98;;
74541;SDS011;63015;45.378;20.360;2022-11-11T01:01:10;37.53;;;16.30;;
74541;SDS011;63015;45.378;20.360;2022-11-11T01:03:29;31.13;;;13.75;;
74541;SDS011;63015;45.378;20.360;2022-11-11T01:05:48;35.17;;;15.55;;
74541;SDS011;63015;45.378;20.360;2022-11-11T01:08:07;34.83;;;16.02;;
74541;SDS011;63015;45.378;20.360;2022-11-11T01:10:26;30.27;;;14.70;;
74541;SDS011;63015;45.378;20.360;2022-11-11T01:13:16;34.72;;;15.10;;
74541;SDS011;63015;45.378;20.360;2022-11-11T01:15:38;32.45;;;13.75;;
74541;SDS011;63015;45.378;20.360;2022-11-11T01:17:59;30.95;;;14.25;;
74541;SDS011;63015;45.378;20.360;2022-11-11T01:20:18;29.98;;;14.15;;
74541;SDS011;63015;45.378;20.360;2022-11-11T01:22:40;30.77;;;14.95;;
74541;SDS011;63015;45.378;20.360;2022-11-11T01:24:59;36.45;;;15.50;;
74541;SDS011;63015;45.378;20.360;2022-11-11T01:27:18;30.20;;;14.55;;
74541;SDS011;63015;45.378;20.360;2022-11-11T01:29:36;31.17;;;14.38;;
74541;SDS011;63015;45.378;20.360;2022-11-11T01:31:55;34.58;;;14.98;;
74541;SDS011;63015;45.378;20.360;2022-11-11T01:34:14;29.55;;;14.43;;
74541;SDS011;63015;45.378;20.360;2022-11-11T01:36:33;31.00;;;14.00;;
74541;SDS011;63015;45.378;20.360;2022-11-11T01:38:56;33.67;;;13.93;;
74541;SDS011;63015;45.378;20.360;2022-11-11T01:41:18;30.20;;;13.60;;
74541;SDS011;63015;45.378;20.360;2022-11-11T01:43:51;33.45;;;14.90;;
74541;SDS011;63015;45.378;20.360;2022-11-11T01:46:16;29.30;;;13.90;;
74541;SDS011;63015;45.378;20.360;2022-11-11T01:48:45;29.63;;;14.60;;
74541;SDS011;63015;45.378;20.360;2022-11-11T01:53:59;29.10;;;13.27;;
74541;SDS011;63015;45.378;20.360;2022-11-11T01:56:24;29.30;;;13.43;;
74541;SDS011;63015;45.378;20.360;2022-11-11T01:58:44;29.23;;;12.55;;
74541;SDS011;63015;45.378;20.360;2022-11-11T02:01:04;29.27;;;13.55;;
74541;SDS011;63015;45.378;20.360;2022-11-11T02:03:24;33.47;;;14.02;;
74541;SDS011;63015;45.378;20.360;2022-11-11T02:05:46;30.02;;;13.10;;
74541;SDS011;63015;45.378;20.360;2022-11-11T02:08:09;26.73;;;12.93;;
74541;SDS011;63015;45.378;20.360;2022-11-11T02:10:50;28.45;;;12.57;;
74541;SDS011;63015;45.378;20.360;2022-11-11T02:13:14;28.63;;;13.20;;
74541;SDS011;63015;45.378;20.360;2022-11-11T02:15:52;25.73;;;12.95;;
74541;SDS011;63015;45.378;20.360;2022-11-11T02:18:11;26.77;;;12.20;;
74541;SDS011;63015;45.378;20.360;2022-11-11T02:20:38;27.95;;;12.60;;
74541;SDS011;63015;45.378;20.360;2022-11-11T02:23:02;24.13;;;12.23;;
74541;SDS011;63015;45.378;20.360;2022-11-11T02:25:26;27.23;;;12.48;;
74541;SDS011;63015;45.378;20.360;2022-11-11T02:27:49;26.13;;;12.93;;
74541;SDS011;63015;45.378;20.360;2022-11-11T02:30:11;27.42;;;13.50;;
74541;SDS011;63015;45.378;20.360;2022-11-11T02:32:34;26.83;;;12.07;;
74541;SDS011;63015;45.378;20.360;2022-11-11T02:34:53;26.23;;;12.50;;
74541;SDS011;63015;45.378;20.360;2022-11-11T02:37:18;30.85;;;13.10;;
74541;SDS011;63015;45.378;20.360;2022-11-11T02:39:41;26.40;;;12.30;;
74541;SDS011;63015;45.378;20.360;2022-11-11T02:42:04;26.92;;;12.05;;
74541;SDS011;63015;45.378;20.360;2022-11-11T02:44:28;28.13;;;12.75;;
74541;SDS011;63015;45.378;20.360;2022-11-11T02:46:47;28.55;;;11.73;;
74541;SDS011;63015;45.378;20.360;2022-11-11T02:49:06;29.42;;;12.35;;
74541;SDS011;63015;45.378;20.360;2022-11-11T02:51:24;26.85;;;12.63;;
74541;SDS011;63015;45.378;20.360;2022-11-11T02:53:43;27.27;;;12.82;;
74541;SDS011;63015;45.378;20.360;2022-11-11T02:56:02;25.65;;;12.13;;
74541;SDS011;63015;45.378;20.360;2022-11-11T02:58:22;27.13;;;12.30;;
74541;SDS011;63015;45.378;20.360;2022-11-11T03:00:41;28.23;;;12.88;;
74541;SDS011;63015;45.378;20.360;2022-11-11T03:03:00;29.05;;;11.85;;
74541;SDS011;63015;45.378;20.360;2022-11-11T03:05:19;25.10;;;12.32;;
74541;SDS011;63015;45.378;20.360;2022-11-11T03:07:38;27.08;;;12.38;;
74541;SDS011;63015;45.378;20.360;2022-11-11T03:09:57;27.17;;;12.55;;
74541;SDS011;63015;45.378;20.360;2022-11-11T03:12:16;25.48;;;12.23;;
74541;SDS011;63015;45.378;20.360;2022-11-11T03:14:35;27.52;;;12.57;;
74541;SDS011;63015;45.378;20.360;2022-11-11T03:16:54;23.95;;;11.40;;
74541;SDS011;63015;45.378;20.360;2022-11-11T03:19:32;24.08;;;10.93;;
74541;SDS011;63015;45.378;20.360;2022-11-11T03:21:52;26.48;;;12.60;;
74541;SDS011;63015;45.378;20.360;2022-11-11T03:24:13;25.15;;;11.77;;
74541;SDS011;63015;45.378;20.360;2022-11-11T03:26:31;28.85;;;12.30;;
74541;SDS011;63015;45.378;20.360;2022-11-11T03:28:50;25.35;;;12.70;;
74541;SDS011;63015;45.378;20.360;2022-11-11T03:31:09;27.13;;;12.57;;
74541;SDS011;63015;45.378;20.360;2022-11-11T03:33:28;28.08;;;13.00;;
74541;SDS011;63015;45.378;20.360;2022-11-11T03:35:47;27.90;;;13.02;;
74541;SDS011;63015;45.378;20.360;2022-11-11T03:38:07;27.20;;;12.88;;
74541;SDS011;63015;45.378;20.360;2022-11-11T03:40:42;27.38;;;11.95;;
74541;SDS011;63015;45.378;20.360;2022-11-11T03:43:03;29.80;;;12.70;;
74541;SDS011;63015;45.378;20.360;2022-11-11T03:45:23;24.75;;;12.32;;
74541;SDS011;63015;45.378;20.360;2022-11-11T03:47:42;27.75;;;13.20;;
74541;SDS011;63015;45.378;20.360;2022-11-11T03:50:01;33.22;;;13.32;;
74541;SDS011;63015;45.378;20.360;2022-11-11T03:52:19;30.40;;;14.05;;
74541;SDS011;63015;45.378;20.360;2022-11-11T03:54:38;30.60;;;13.63;;
74541;SDS011;63015;45.378;20.360;2022-11-11T03:56:58;31.02;;;13.68;;
74541;SDS011;63015;45.378;20.360;2022-11-11T03:59:36;30.33;;;14.07;;
74541;SDS011;63015;45.378;20.360;2022-11-11T04:01:55;28.85;;;13.32;;
74541;SDS011;63015;45.378;20.360;2022-11-11T04:04:33;29.55;;;13.13;;
74541;SDS011;63015;45.378;20.360;2022-11-11T04:07:10;30.02;;;13.18;;
74541;SDS011;63015;45.378;20.360;2022-11-11T04:09:48;28.42;;;12.90;;
74541;SDS011;63015;45.378;20.360;2022-11-11T04:12:26;29.05;;;14.23;;
74541;SDS011;63015;45.378;20.360;2022-11-11T04:14:46;31.17;;;13.32;;
74541;SDS011;63015;45.378;20.360;2022-11-11T04:17:24;31.10;;;12.70;;
74541;SDS011;63015;45.378;20.360;2022-11-11T04:19:43;32.47;;;13.70;;
74541;SDS011;63015;45.378;20.360;2022-11-11T04:22:21;31.83;;;14.23;;
74541;SDS011;63015;45.378;20.360;2022-11-11T04:24:40;33.40;;;13.77;;
74541;SDS011;63015;45.378;20.360;2022-11-11T04:27:18;30.15;;;13.57;;
74541;SDS011;63015;45.378;20.360;2022-11-11T04:29:38;32.58;;;14.35;;
74541;SDS011;63015;45.378;20.360;2022-11-11T04:31:58;34.15;;;14.05;;
74541;SDS011;63015;45.378;20.360;2022-11-11T04:34:50;31.77;;;13.77;;
74541;SDS011;63015;45.378;20.360;2022-11-11T04:37:14;30.05;;;14.20;;
74541;SDS011;63015;45.378;20.360;2022-11-11T04:39:34;28.75;;;12.95;;
74541;SDS011;63015;45.378;20.360;2022-11-11T04:42:12;25.65;;;12.65;;
74541;SDS011;63015;45.378;20.360;2022-11-11T04:44:31;27.30;;;12.82;;
74541;SDS011;63015;45.378;20.360;2022-11-11T04:47:09;28.55;;;12.82;;
74541;SDS011;63015;45.378;20.360;2022-11-11T04:49:28;30.88;;;14.30;;
74541;SDS011;63015;45.378;20.360;2022-11-11T04:51:47;33.40;;;12.98;;
74541;SDS011;63015;45.378;20.360;2022-11-11T04:54:25;29.42;;;13.32;;
74541;SDS011;63015;45.378;20.360;2022-11-11T04:56:44;32.50;;;14.13;;
74541;SDS011;63015;45.378;20.360;2022-11-11T04:59:08;28.58;;;13.98;;
74541;SDS011;63015;45.378;20.360;2022-11-11T05:01:37;36.63;;;14.80;;
74541;SDS011;63015;45.378;20.360;2022-11-11T05:04:15;27.70;;;12.82;;
74541;SDS011;63015;45.378;20.360;2022-11-11T05:06:34;30.92;;;13.38;;
74541;SDS011;63015;45.378;20.360;2022-11-11T05:09:12;31.17;;;13.40;;
74541;SDS011;63015;45.378;20.360;2022-11-11T05:11:31;33.10;;;13.98;;
74541;SDS011;63015;45.378;20.360;2022-11-11T05:13:58;33.08;;;13.13;;
74541;SDS011;63015;45.378;20.360;2022-11-11T05:16:56;29.63;;;12.57;;
74541;SDS011;63015;45.378;20.360;2022-11-11T05:19:35;30.58;;;12.55;;
74541;SDS011;63015;45.378;20.360;2022-11-11T05:24:44;27.48;;;11.73;;
74541;SDS011;63015;45.378;20.360;2022-11-11T05:27:22;29.35;;;13.55;;
74541;SDS011;63015;45.378;20.360;2022-11-11T05:29:41;25.75;;;11.88;;
74541;SDS011;63015;45.378;20.360;2022-11-11T05:32:00;29.75;;;12.80;;
74541;SDS011;63015;45.378;20.360;2022-11-11T05:34:19;26.33;;;10.80;;
74541;SDS011;63015;45.378;20.360;2022-11-11T05:36:38;25.75;;;12.30;;
74541;SDS011;63015;45.378;20.360;2022-11-11T05:38:57;30.48;;;12.73;;
74541;SDS011;63015;45.378;20.360;2022-11-11T05:41:16;30.08;;;13.75;;
74541;SDS011;63015;45.378;20.360;2022-11-11T05:43:35;28.20;;;13.00;;
74541;SDS011;63015;45.378;20.360;2022-11-11T05:45:54;27.85;;;12.88;;
74541;SDS011;63015;45.378;20.360;2022-11-11T05:48:13;30.02;;;12.30;;
74541;SDS011;63015;45.378;20.360;2022-11-11T05:50:32;26.08;;;13.43;;
74541;SDS011;63015;45.378;20.360;2022-11-11T05:52:52;25.33;;;12.07;;
74541;SDS011;63015;45.378;20.360;2022-11-11T05:55:11;26.35;;;12.38;;
74541;SDS011;63015;45.378;20.360;2022-11-11T05:57:30;25.77;;;13.25;;
74541;SDS011;63015;45.378;20.360;2022-11-11T05:59:49;30.35;;;13.43;;
74541;SDS011;63015;45.378;20.360;2022-11-11T06:02:08;26.08;;;12.63;;
74541;SDS011;63015;45.378;20.360;2022-11-11T06:04:28;29.35;;;13.40;;
74541;SDS011;63015;45.378;20.360;2022-11-11T06:06:47;28.90;;;13.68;;
74541;SDS011;63015;45.378;20.360;2022-11-11T06:09:06;26.70;;;13.52;;
74541;SDS011;63015;45.378;20.360;2022-11-11T06:11:26;26.77;;;12.88;;
74541;SDS011;63015;45.378;20.360;2022-11-11T06:13:45;29.25;;;13.45;;
74541;SDS011;63015;45.378;20.360;2022-11-11T06:16:05;28.38;;;13.65;;
74541;SDS011;63015;45.378;20.360;2022-11-11T06:18:25;27.88;;;13.77;;
74541;SDS011;63015;45.378;20.360;2022-11-11T06:20:44;27.85;;;13.30;;
74541;SDS011;63015;45.378;20.360;2022-11-11T06:23:03;27.92;;;13.45;;
74541;SDS011;63015;45.378;20.360;2022-11-11T06:25:26;32.67;;;15.43;;
74541;SDS011;63015;45.378;20.360;2022-11-11T06:28:05;26.30;;;12.55;;
74541;SDS011;63015;45.378;20.360;2022-11-11T06:30:24;28.15;;;12.93;;
74541;SDS011;63015;45.378;20.360;2022-11-11T06:32:43;30.70;;;14.23;;
74541;SDS011;63015;45.378;20.360;2022-11-11T06:35:02;31.15;;;14.70;;
74541;SDS011;63015;45.378;20.360;2022-11-11T06:37:21;29.17;;;13.00;;
74541;SDS011;63015;45.378;20.360;2022-11-11T06:39:40;27.98;;;13.45;;
74541;SDS011;63015;45.378;20.360;2022-11-11T06:42:02;32.08;;;14.45;;
74541;SDS011;63015;45.378;20.360;2022-11-11T06:44:21;31.55;;;14.80;;
74541;SDS011;63015;45.378;20.360;2022-11-11T06:46:40;31.27;;;14.68;;
74541;SDS011;63015;45.378;20.360;2022-11-11T06:48:59;27.38;;;14.05;;
74541;SDS011;63015;45.378;20.360;2022-11-11T06:51:18;28.58;;;13.73;;
74541;SDS011;63015;45.378;20.360;2022-11-11T06:53:37;31.55;;;14.07;;
74541;SDS011;63015;45.378;20.360;2022-11-11T06:55:56;31.40;;;14.80;;
74541;SDS011;63015;45.378;20.360;2022-11-11T06:58:16;31.90;;;14.95;;
74541;SDS011;63015;45.378;20.360;2022-11-11T07:00:37;30.67;;;14.05;;
74541;SDS011;63015;45.378;20.360;2022-11-11T07:02:57;31.67;;;14.30;;
74541;SDS011;63015;45.378;20.360;2022-11-11T07:05:16;31.83;;;13.93;;
74541;SDS011;63015;45.378;20.360;2022-11-11T07:07:35;32.67;;;15.13;;
74541;SDS011;63015;45.378;20.360;2022-11-11T07:09:54;29.73;;;13.55;;
74541;SDS011;63015;45.378;20.360;2022-11-11T07:12:14;31.02;;;14.48;;
74541;SDS011;63015;45.378;20.360;2022-11-11T07:14:33;31.90;;;14.45;;
74541;SDS011;63015;45.378;20.360;2022-11-11T07:16:53;30.90;;;13.27;;
74541;SDS011;63015;45.378;20.360;2022-11-11T07:19:11;29.40;;;13.40;;
74541;SDS011;63015;45.378;20.360;2022-11-11T07:21:31;30.48;;;14.00;;
74541;SDS011;63015;45.378;20.360;2022-11-11T07:23:50;33.08;;;14.43;;
74541;SDS011;63015;45.378;20.360;2022-11-11T07:26:10;29.40;;;13.68;;
74541;SDS011;63015;45.378;20.360;2022-11-11T07:28:28;31.42;;;14.35;;
74541;SDS011;63015;45.378;20.360;2022-11-11T07:30:47;31.48;;;14.70;;
74541;SDS011;63015;45.378;20.360;2022-11-11T07:33:06;30.83;;;13.98;;
74541;SDS011;63015;45.378;20.360;2022-11-11T07:35:25;31.27;;;14.18;;
74541;SDS011;63015;45.378;20.360;2022-11-11T07:37:44;30.08;;;13.00;;
74541;SDS011;63015;45.378;20.360;2022-11-11T07:40:04;31.55;;;14.35;;
74541;SDS011;63015;45.378;20.360;2022-11-11T07:42:24;31.48;;;13.55;;
74541;SDS011;63015;45.378;20.360;2022-11-11T07:44:43;29.25;;;12.98;;
74541;SDS011;63015;45.378;20.360;2022-11-11T07:47:02;25.80;;;12.70;;
74541;SDS011;63015;45.378;20.360;2022-11-11T07:49:21;26.58;;;12.75;;
74541;SDS011;63015;45.378;20.360;2022-11-11T07:51:40;29.13;;;13.32;;
74541;SDS011;63015;45.378;20.360;2022-11-11T07:53:59;28.42;;;14.05;;
74541;SDS011;63015;45.378;20.360;2022-11-11T07:56:18;27.40;;;12.85;;
74541;SDS011;63015;45.378;20.360;2022-11-11T07:58:37;29.00;;;13.13;;
74541;SDS011;63015;45.378;20.360;2022-11-11T08:00:58;26.95;;;12.18;;
74541;SDS011;63015;45.378;20.360;2022-11-11T08:03:18;27.95;;;13.52;;
74541;SDS011;63015;45.378;20.360;2022-11-11T08:05:37;25.83;;;12.45;;
74541;SDS011;63015;45.378;20.360;2022-11-11T08:08:00;26.30;;;12.68;;
74541;SDS011;63015;45.378;20.360;2022-11-11T08:10:24;29.48;;;12.75;;
74541;SDS011;63015;45.378;20.360;2022-11-11T08:12:42;26.17;;;12.63;;
74541;SDS011;63015;45.378;20.360;2022-11-11T08:15:20;28.17;;;14.00;;
74541;SDS011;63015;45.378;20.360;2022-11-11T08:17:39;25.08;;;12.07;;
74541;SDS011;63015;45.378;20.360;2022-11-11T08:19:58;27.52;;;13.75;;
74541;SDS011;63015;45.378;20.360;2022-11-11T08:22:17;25.67;;;12.70;;
74541;SDS011;63015;45.378;20.360;2022-11-11T08:24:36;26.42;;;13.50;;
74541;SDS011;63015;45.378;20.360;2022-11-11T08:26:55;28.35;;;14.35;;
74541;SDS011;63015;45.378;20.360;2022-11-11T08:29:14;24.60;;;12.93;;
74541;SDS011;63015;45.378;20.360;2022-11-11T08:31:34;26.88;;;13.60;;
74541;SDS011;63015;45.378;20.360;2022-11-11T08:33:53;28.85;;;13.35;;
74541;SDS011;63015;45.378;20.360;2022-11-11T08:36:12;25.88;;;13.40;;
74541;SDS011;63015;45.378;20.360;2022-11-11T08:38:31;28.08;;;14.18;;
74541;SDS011;63015;45.378;20.360;2022-11-11T08:40:51;27.02;;;13.50;;
74541;SDS011;63015;45.378;20.360;2022-11-11T08:43:10;26.33;;;13.70;;
74541;SDS011;63015;45.378;20.360;2022-11-11T08:45:29;25.35;;;12.90;;
74541;SDS011;63015;45.378;20.360;2022-11-11T08:47:48;31.67;;;15.32;;
74541;SDS011;63015;45.378;20.360;2022-11-11T08:50:07;27.25;;;14.00;;
74541;SDS011;63015;45.378;20.360;2022-11-11T08:52:26;29.65;;;14.38;;
74541;SDS011;63015;45.378;20.360;2022-11-11T08:54:46;27.23;;;12.90;;
74541;SDS011;63015;45.378;20.360;2022-11-11T08:57:05;26.65;;;13.27;;
74541;SDS011;63015;45.378;20.360;2022-11-11T08:59:24;26.02;;;13.55;;
74541;SDS011;63015;45.378;20.360;2022-11-11T09:01:43;29.75;;;14.93;;
74541;SDS011;63015;45.378;20.360;2022-11-11T09:04:02;29.38;;;13.88;;
74541;SDS011;63015;45.378;20.360;2022-11-11T09:06:21;28.70;;;14.10;;
74541;SDS011;63015;45.378;20.360;2022-11-11T09:08:41;25.88;;;13.45;;
74541;SDS011;63015;45.378;20.360;2022-11-11T09:11:00;28.00;;;13.77;;
74541;SDS011;63015;45.378;20.360;2022-11-11T09:13:19;28.15;;;13.15;;
74541;SDS011;63015;45.378;20.360;2022-11-11T09:15:38;27.90;;;12.98;;
74541;SDS011;63015;45.378;20.360;2022-11-11T09:17:57;28.23;;;13.30;;
74541;SDS011;63015;45.378;20.360;2022-11-11T09:20:17;28.15;;;13.93;;
74541;SDS011;63015;45.378;20.360;2022-11-11T09:22:40;27.00;;;14.00;;
74541;SDS011;63015;45.378;20.360;2022-11-11T09:25:04;27.92;;;13.73;;
74541;SDS011;63015;45.378;20.360;2022-11-11T09:27:23;28.25;;;14.70;;
74541;SDS011;63015;45.378;20.360;2022-11-11T09:29:43;28.05;;;13.90;;
74541;SDS011;63015;45.378;20.360;2022-11-11T09:32:02;31.60;;;13.18;;
74541;SDS011;63015;45.378;20.360;2022-11-11T09:34:21;28.95;;;14.13;;
74541;SDS011;63015;45.378;20.360;2022-11-11T09:36:41;27.85;;;13.95;;
74541;SDS011;63015;45.378;20.360;2022-11-11T09:39:00;30.15;;;15.00;;
74541;SDS011;63015;45.378;20.360;2022-11-11T09:41:21;29.75;;;14.13;;
74541;SDS011;63015;45.378;20.360;2022-11-11T09:44:00;26.27;;;14.07;;
74541;SDS011;63015;45.378;20.360;2022-11-11T09:48:59;29.70;;;15.20;;
74541;SDS011;63015;45.378;20.360;2022-11-11T09:51:45;24.55;;;13.77;;
74541;SDS011;63015;45.378;20.360;2022-11-11T09:54:11;28.30;;;14.68;;
74541;SDS011;63015;45.378;20.360;2022-11-11T09:56:35;27.63;;;15.02;;
74541;SDS011;63015;45.378;20.360;2022-11-11T10:01:40;28.05;;;14.73;;
74541;SDS011;63015;45.378;20.360;2022-11-11T10:06:33;28.63;;;14.13;;
74541;SDS011;63015;45.378;20.360;2022-11-11T10:08:58;30.42;;;15.00;;
74541;SDS011;63015;45.378;20.360;2022-11-11T10:14:24;32.17;;;15.23;;
74541;SDS011;63015;45.378;20.360;2022-11-11T10:22:30;28.85;;;15.02;;
74541;SDS011;63015;45.378;20.360;2022-11-11T10:24:54;34.95;;;15.13;;
74541;SDS011;63015;45.378;20.360;2022-11-11T10:27:26;30.48;;;14.95;;
74541;SDS011;63015;45.378;20.360;2022-11-11T10:29:47;26.95;;;14.07;;
74541;SDS011;63015;45.378;20.360;2022-11-11T10:32:09;28.92;;;14.25;;
74541;SDS011;63015;45.378;20.360;2022-11-11T10:34:50;30.27;;;15.32;;
74541;SDS011;63015;45.378;20.360;2022-11-11T10:37:23;26.23;;;14.57;;
74541;SDS011;63015;45.378;20.360;2022-11-11T10:42:30;28.67;;;14.15;;
74541;SDS011;63015;45.378;20.360;2022-11-11T10:44:49;26.48;;;13.75;;
74541;SDS011;63015;45.378;20.360;2022-11-11T10:50:34;31.15;;;14.00;;
74541;SDS011;63015;45.378;20.360;2022-11-11T10:52:59;28.30;;;14.43;;
74541;SDS011;63015;45.378;20.360;2022-11-11T10:55:45;25.88;;;14.48;;
74541;SDS011;63015;45.378;20.360;2022-11-11T11:00:36;28.48;;;14.55;;
74541;SDS011;63015;45.378;20.360;2022-11-11T11:02:58;28.48;;;14.23;;
74541;SDS011;63015;45.378;20.360;2022-11-11T11:05:33;27.88;;;13.88;;
74541;SDS011;63015;45.378;20.360;2022-11-11T11:08:05;24.73;;;13.32;;
74541;SDS011;63015;45.378;20.360;2022-11-11T11:10:31;25.98;;;13.98;;
74541;SDS011;63015;45.378;20.360;2022-11-11T11:12:58;27.73;;;14.07;;
74541;SDS011;63015;45.378;20.360;2022-11-11T11:15:24;24.92;;;13.25;;
74541;SDS011;63015;45.378;20.360;2022-11-11T11:17:58;26.50;;;13.82;;
74541;SDS011;63015;45.378;20.360;2022-11-11T11:20:22;25.83;;;12.85;;
74541;SDS011;63015;45.378;20.360;2022-11-11T11:22:46;25.63;;;13.27;;
74541;SDS011;63015;45.378;20.360;2022-11-11T11:25:10;27.77;;;13.65;;
74541;SDS011;63015;45.378;20.360;2022-11-11T11:27:30;24.95;;;12.82;;
74541;SDS011;63015;45.378;20.360;2022-11-11T11:29:49;24.90;;;12.40;;
74541;SDS011;63015;45.378;20.360;2022-11-11T11:32:21;26.05;;;12.70;;
74541;SDS011;63015;45.378;20.360;2022-11-11T11:34:50;27.75;;;12.95;;
74541;SDS011;63015;45.378;20.360;2022-11-11T11:37:10;25.10;;;13.20;;
74541;SDS011;63015;45.378;20.360;2022-11-11T11:39:36;22.27;;;11.55;;
74541;SDS011;63015;45.378;20.360;2022-11-11T11:41:57;24.13;;;12.70;;
74541;SDS011;63015;45.378;20.360;2022-11-11T11:52:11;26.38;;;14.02;;
74541;SDS011;63015;45.378;20.360;2022-11-11T11:57:23;22.30;;;12.20;;
74541;SDS011;63015;45.378;20.360;2022-11-11T11:59:49;25.98;;;12.63;;
74541;SDS011;63015;45.378;20.360;2022-11-11T12:05:03;23.40;;;12.23;;
74541;SDS011;63015;45.378;20.360;2022-11-11T12:07:36;19.55;;;9.38;;
74541;SDS011;63015;45.378;20.360;2022-11-11T12:10:10;19.60;;;8.73;;
74541;SDS011;63015;45.378;20.360;2022-11-11T12:31:16;19.55;;;9.05;;
74541;SDS011;63015;45.378;20.360;2022-11-11T12:33:49;19.10;;;8.38;;
74541;SDS011;63015;45.378;20.360;2022-11-11T12:41:51;16.38;;;7.78;;
74541;SDS011;63015;45.378;20.360;2022-11-11T12:44:20;17.77;;;8.52;;
74541;SDS011;63015;45.378;20.360;2022-11-11T12:47:03;20.05;;;8.15;;
74541;SDS011;63015;45.378;20.360;2022-11-11T12:49:42;16.40;;;7.57;;
74541;SDS011;63015;45.378;20.360;2022-11-11T13:00:42;15.95;;;7.90;;
74541;SDS011;63015;45.378;20.360;2022-11-11T13:03:26;18.95;;;8.48;;
74541;SDS011;63015;45.378;20.360;2022-11-11T13:08:56;19.92;;;8.20;;
74541;SDS011;63015;45.378;20.360;2022-11-11T13:16:51;38.75;;;8.43;;
74541;SDS011;63015;45.378;20.360;2022-11-11T13:19:20;18.23;;;8.35;;
74541;SDS011;63015;45.378;20.360;2022-11-11T13:24:11;16.85;;;7.90;;
74541;SDS011;63015;45.378;20.360;2022-11-11T13:29:05;18.33;;;8.70;;
74541;SDS011;63015;45.378;20.360;2022-11-11T13:31:45;16.73;;;7.53;;
74541;SDS011;63015;45.378;20.360;2022-11-11T13:34:10;16.60;;;7.40;;
74541;SDS011;63015;45.378;20.360;2022-11-11T13:36:38;14.85;;;7.85;;
74541;SDS011;63015;45.378;20.360;2022-11-11T13:39:03;15.82;;;6.68;;
74541;SDS011;63015;45.378;20.360;2022-11-11T13:41:26;13.57;;;7.00;;
74541;SDS011;63015;45.378;20.360;2022-11-11T13:43:49;13.18;;;6.30;;
74541;SDS011;63015;45.378;20.360;2022-11-11T13:46:22;12.95;;;6.43;;
74541;SDS011;63015;45.378;20.360;2022-11-11T13:48:46;17.15;;;7.15;;
74541;SDS011;63015;45.378;20.360;2022-11-11T13:53:51;19.52;;;8.18;;
74541;SDS011;63015;45.378;20.360;2022-11-11T13:56:11;16.38;;;7.95;;
74541;SDS011;63015;45.378;20.360;2022-11-11T13:58:40;16.42;;;7.00;;
74541;SDS011;63015;45.378;20.360;2022-11-11T14:01:07;17.58;;;7.10;;
74541;SDS011;63015;45.378;20.360;2022-11-11T14:11:05;19.50;;;7.88;;
74541;SDS011;63015;45.378;20.360;2022-11-11T14:16:08;21.33;;;10.10;;
74541;SDS011;63015;45.378;20.360;2022-11-11T14:18:35;21.33;;;10.50;;
74541;SDS011;63015;45.378;20.360;2022-11-11T14:20:56;20.50;;;10.13;;
74541;SDS011;63015;45.378;20.360;2022-11-11T14:26:38;19.02;;;8.57;;
74541;SDS011;63015;45.378;20.360;2022-11-11T14:28:32;18.17;;;7.38;;
74541;SDS011;63015;45.378;20.360;2022-11-11T14:30:53;16.15;;;6.72;;
74541;SDS011;63015;45.378;20.360;2022-11-11T14:38:29;11.25;;;5.05;;
74541;SDS011;63015;45.378;20.360;2022-11-11T14:44:27;11.27;;;5.07;;
74541;SDS011;63015;45.378;20.360;2022-11-11T14:52:01;9.63;;;4.15;;
74541;SDS011;63015;45.378;20.360;2022-11-11T14:56:57;10.05;;;4.32;;
74541;SDS011;63015;45.378;20.360;2022-11-11T14:59:21;9.50;;;4.25;;
74541;SDS011;63015;45.378;20.360;2022-11-11T15:01:43;10.25;;;4.47;;
74541;SDS011;63015;45.378;20.360;2022-11-11T15:04:04;10.63;;;4.55;;
74541;SDS011;63015;45.378;20.360;2022-11-11T15:06:31;9.70;;;4.53;;
74541;SDS011;63015;45.378;20.360;2022-11-11T15:14:03;12.38;;;5.88;;
74541;SDS011;63015;45.378;20.360;2022-11-11T15:21:34;12.73;;;5.85;;
74541;SDS011;63015;45.378;20.360;2022-11-11T15:33:48;16.10;;;6.28;;
74541;SDS011;63015;45.378;20.360;2022-11-11T15:39:18;17.45;;;7.40;;
74541;SDS011;63015;45.378;20.360;2022-11-11T15:41:42;16.42;;;7.10;;
74541;SDS011;63015;45.378;20.360;2022-11-11T15:44:13;14.93;;;7.05;;
74541;SDS011;63015;45.378;20.360;2022-11-11T15:46:39;16.38;;;6.78;;
74541;SDS011;63015;45.378;20.360;2022-11-11T15:49:00;15.25;;;6.53;;
74541;SDS011;63015;45.378;20.360;2022-11-11T15:51:30;15.45;;;6.95;;
74541;SDS011;63015;45.378;20.360;2022-11-11T15:53:51;13.07;;;6.95;;
74541;SDS011;63015;45.378;20.360;2022-11-11T15:56:10;15.52;;;7.30;;
74541;SDS011;63015;45.378;20.360;2022-11-11T15:58:30;16.92;;;7.75;;
74541;SDS011;63015;45.378;20.360;2022-11-11T16:00:50;20.67;;;8.25;;
74541;SDS011;63015;45.378;20.360;2022-11-11T16:03:14;19.27;;;8.45;;
74541;SDS011;63015;45.378;20.360;2022-11-11T16:05:35;19.13;;;8.63;;
74541;SDS011;63015;45.378;20.360;2022-11-11T16:07:55;17.77;;;7.22;;
74541;SDS011;63015;45.378;20.360;2022-11-11T16:10:29;15.25;;;7.72;;
74541;SDS011;63015;45.378;20.360;2022-11-11T16:18:42;18.15;;;7.13;;
74541;SDS011;63015;45.378;20.360;2022-11-11T16:23:39;16.67;;;7.10;;